sensor_id;sensor_type;location;lat;lon;timestamp;P1;durP1;ratioP1;P2;durP2;ratioP2
16294;SDS011;8255;49.560;8.244;2023-04-03T00:00:45;2.43;;;2.33;;
16294;SDS011;8255;49.560;8.244;2023-04-03T00:03:12;2.27;;;2.17;;
16294;SDS011;8255;49.560;8.244;2023-04-03T00:05:38;2.80;;;2.60;;
16294;SDS011;8255;49.560;8.244;2023-04-03T00:08:04;2.63;;;2.43;;
16294;SDS011;8255;49.560;8.244;2023-04-03T00:10:32;3.47;;;2.70;;
16294;SDS011;8255;49.560;8.244;2023-04-03T00:12:59;2.80;;;2.60;;
16294;SDS011;8255;49.560;8.244;2023-04-03T00:15:25;3.33;;;3.03;;
16294;SDS011;8255;49.560;8.244;2023-04-03T00:17:53;3.10;;;2.90;;
16294;SDS011;8255;49.560;8.244;2023-04-03T00:20:19;3.07;;;2.87;;
16294;SDS011;8255;49.560;8.244;2023-04-03T00:22:46;2.80;;;2.60;;
16294;SDS011;8255;49.560;8.244;2023-04-03T00:25:12;2.67;;;2.47;;
16294;SDS011;8255;49.560;8.244;2023-04-03T00:27:39;3.00;;;2.80;;
16294;SDS011;8255;49.560;8.244;2023-04-03T00:30:06;3.67;;;3.00;;
16294;SDS011;8255;49.560;8.244;2023-04-03T00:32:33;3.23;;;2.90;;
16294;SDS011;8255;49.560;8.244;2023-04-03T00:35:00;2.67;;;2.50;;
16294;SDS011;8255;49.560;8.244;2023-04-03T00:37:27;3.33;;;2.93;;
16294;SDS011;8255;49.560;8.244;2023-04-03T00:39:53;3.30;;;3.10;;
16294;SDS011;8255;49.560;8.244;2023-04-03T00:42:20;3.57;;;2.73;;
16294;SDS011;8255;49.560;8.244;2023-04-03T00:47:31;3.20;;;2.97;;
16294;SDS011;8255;49.560;8.244;2023-04-03T00:49:58;3.00;;;2.90;;
16294;SDS011;8255;49.560;8.244;2023-04-03T00:52:28;3.00;;;2.80;;
16294;SDS011;8255;49.560;8.244;2023-04-03T00:54:57;3.30;;;3.00;;
16294;SDS011;8255;49.560;8.244;2023-04-03T00:57:24;3.43;;;3.10;;
16294;SDS011;8255;49.560;8.244;2023-04-03T00:59:52;3.27;;;2.93;;
16294;SDS011;8255;49.560;8.244;2023-04-03T01:02:20;2.90;;;2.70;;
16294;SDS011;8255;49.560;8.244;2023-04-03T01:04:46;3.73;;;2.90;;
16294;SDS011;8255;49.560;8.244;2023-04-03T01:07:15;3.30;;;3.10;;
16294;SDS011;8255;49.560;8.244;2023-04-03T01:09:44;3.40;;;3.13;;
16294;SDS011;8255;49.560;8.244;2023-04-03T01:12:14;3.37;;;3.17;;
16294;SDS011;8255;49.560;8.244;2023-04-03T01:14:42;3.27;;;2.97;;
16294;SDS011;8255;49.560;8.244;2023-04-03T01:17:23;4.00;;;3.37;;
16294;SDS011;8255;49.560;8.244;2023-04-03T01:19:52;3.47;;;3.20;;
16294;SDS011;8255;49.560;8.244;2023-04-03T01:22:21;3.07;;;2.87;;
16294;SDS011;8255;49.560;8.244;2023-04-03T01:24:51;3.27;;;3.07;;
16294;SDS011;8255;49.560;8.244;2023-04-03T01:27:18;3.77;;;3.10;;
16294;SDS011;8255;49.560;8.244;2023-04-03T01:29:44;3.70;;;3.47;;
16294;SDS011;8255;49.560;8.244;2023-04-03T01:32:12;4.73;;;2.93;;
16294;SDS011;8255;49.560;8.244;2023-04-03T01:34:40;3.50;;;3.20;;
16294;SDS011;8255;49.560;8.244;2023-04-03T01:37:07;3.43;;;3.13;;
16294;SDS011;8255;49.560;8.244;2023-04-03T01:39:33;3.60;;;3.30;;
16294;SDS011;8255;49.560;8.244;2023-04-03T01:42:00;3.37;;;3.17;;
16294;SDS011;8255;49.560;8.244;2023-04-03T01:44:33;3.57;;;3.10;;
16294;SDS011;8255;49.560;8.244;2023-04-03T01:46:59;3.53;;;3.33;;
16294;SDS011;8255;49.560;8.244;2023-04-03T01:49:28;3.83;;;3.07;;
16294;SDS011;8255;49.560;8.244;2023-04-03T01:51:55;3.00;;;2.80;;
16294;SDS011;8255;49.560;8.244;2023-04-03T01:54:22;3.77;;;3.03;;
16294;SDS011;8255;49.560;8.244;2023-04-03T01:56:48;3.50;;;3.00;;
16294;SDS011;8255;49.560;8.244;2023-04-03T01:59:14;3.70;;;3.13;;
16294;SDS011;8255;49.560;8.244;2023-04-03T02:01:43;3.33;;;3.03;;
16294;SDS011;8255;49.560;8.244;2023-04-03T02:04:10;4.17;;;3.00;;
16294;SDS011;8255;49.560;8.244;2023-04-03T02:06:38;2.80;;;2.70;;
16294;SDS011;8255;49.560;8.244;2023-04-03T02:09:04;3.30;;;3.07;;
16294;SDS011;8255;49.560;8.244;2023-04-03T02:11:31;4.03;;;3.03;;
16294;SDS011;8255;49.560;8.244;2023-04-03T02:13:58;2.90;;;2.70;;
16294;SDS011;8255;49.560;8.244;2023-04-03T02:16:24;3.33;;;3.03;;
16294;SDS011;8255;49.560;8.244;2023-04-03T02:18:51;2.97;;;2.77;;
16294;SDS011;8255;49.560;8.244;2023-04-03T02:21:17;3.23;;;3.03;;
16294;SDS011;8255;49.560;8.244;2023-04-03T02:23:45;3.10;;;2.90;;
16294;SDS011;8255;49.560;8.244;2023-04-03T02:26:12;3.60;;;2.70;;
16294;SDS011;8255;49.560;8.244;2023-04-03T02:28:39;2.27;;;2.17;;
16294;SDS011;8255;49.560;8.244;2023-04-03T02:31:06;3.10;;;2.57;;
16294;SDS011;8255;49.560;8.244;2023-04-03T02:33:34;2.70;;;2.50;;
16294;SDS011;8255;49.560;8.244;2023-04-03T02:36:03;3.37;;;2.97;;
16294;SDS011;8255;49.560;8.244;2023-04-03T02:38:30;3.07;;;2.80;;
16294;SDS011;8255;49.560;8.244;2023-04-03T02:41:00;2.60;;;2.50;;
16294;SDS011;8255;49.560;8.244;2023-04-03T02:43:27;4.57;;;2.87;;
16294;SDS011;8255;49.560;8.244;2023-04-03T02:45:53;3.10;;;2.83;;
16294;SDS011;8255;49.560;8.244;2023-04-03T02:48:20;2.87;;;2.70;;
16294;SDS011;8255;49.560;8.244;2023-04-03T02:50:46;2.80;;;2.63;;
16294;SDS011;8255;49.560;8.244;2023-04-03T02:53:12;4.03;;;2.60;;
16294;SDS011;8255;49.560;8.244;2023-04-03T02:55:39;3.57;;;2.60;;
16294;SDS011;8255;49.560;8.244;2023-04-03T02:58:06;3.17;;;2.83;;
16294;SDS011;8255;49.560;8.244;2023-04-03T03:00:33;3.23;;;2.93;;
16294;SDS011;8255;49.560;8.244;2023-04-03T03:02:59;2.90;;;2.50;;
16294;SDS011;8255;49.560;8.244;2023-04-03T03:05:26;5.87;;;2.67;;
16294;SDS011;8255;49.560;8.244;2023-04-03T03:07:52;3.13;;;2.80;;
16294;SDS011;8255;49.560;8.244;2023-04-03T03:10:19;3.63;;;2.70;;
16294;SDS011;8255;49.560;8.244;2023-04-03T03:12:45;3.10;;;2.90;;
16294;SDS011;8255;49.560;8.244;2023-04-03T03:15:13;2.87;;;2.67;;
16294;SDS011;8255;49.560;8.244;2023-04-03T03:17:40;2.77;;;2.67;;
16294;SDS011;8255;49.560;8.244;2023-04-03T03:20:07;2.80;;;2.60;;
16294;SDS011;8255;49.560;8.244;2023-04-03T03:22:34;3.27;;;2.80;;
16294;SDS011;8255;49.560;8.244;2023-04-03T03:25:00;3.93;;;3.00;;
16294;SDS011;8255;49.560;8.244;2023-04-03T03:27:27;3.27;;;2.97;;
16294;SDS011;8255;49.560;8.244;2023-04-03T03:29:53;3.70;;;2.60;;
16294;SDS011;8255;49.560;8.244;2023-04-03T03:32:21;2.83;;;2.73;;
16294;SDS011;8255;49.560;8.244;2023-04-03T03:34:48;3.77;;;2.97;;
16294;SDS011;8255;49.560;8.244;2023-04-03T03:37:14;3.93;;;2.70;;
16294;SDS011;8255;49.560;8.244;2023-04-03T03:39:40;3.00;;;2.80;;
16294;SDS011;8255;49.560;8.244;2023-04-03T03:42:07;3.00;;;2.80;;
16294;SDS011;8255;49.560;8.244;2023-04-03T03:44:33;2.93;;;2.73;;
16294;SDS011;8255;49.560;8.244;2023-04-03T03:46:59;2.83;;;2.50;;
16294;SDS011;8255;49.560;8.244;2023-04-03T03:49:29;2.80;;;2.60;;
16294;SDS011;8255;49.560;8.244;2023-04-03T03:51:55;2.80;;;2.60;;
16294;SDS011;8255;49.560;8.244;2023-04-03T03:54:21;2.90;;;2.70;;
16294;SDS011;8255;49.560;8.244;2023-04-03T03:56:48;3.40;;;3.10;;
16294;SDS011;8255;49.560;8.244;2023-04-03T03:59:15;3.30;;;2.93;;
16294;SDS011;8255;49.560;8.244;2023-04-03T04:01:41;4.20;;;2.60;;
16294;SDS011;8255;49.560;8.244;2023-04-03T04:04:08;3.10;;;2.83;;
16294;SDS011;8255;49.560;8.244;2023-04-03T04:06:36;2.80;;;2.50;;
16294;SDS011;8255;49.560;8.244;2023-04-03T04:09:06;3.63;;;3.27;;
16294;SDS011;8255;49.560;8.244;2023-04-03T04:11:32;3.73;;;2.83;;
16294;SDS011;8255;49.560;8.244;2023-04-03T04:13:59;3.77;;;2.90;;
16294;SDS011;8255;49.560;8.244;2023-04-03T04:16:28;3.30;;;2.90;;
16294;SDS011;8255;49.560;8.244;2023-04-03T04:18:58;3.00;;;2.80;;
16294;SDS011;8255;49.560;8.244;2023-04-03T04:21:25;2.97;;;2.77;;
16294;SDS011;8255;49.560;8.244;2023-04-03T04:23:54;3.97;;;2.80;;
16294;SDS011;8255;49.560;8.244;2023-04-03T04:26:20;3.63;;;3.13;;
16294;SDS011;8255;49.560;8.244;2023-04-03T04:28:46;3.43;;;3.03;;
16294;SDS011;8255;49.560;8.244;2023-04-03T04:31:13;4.43;;;2.87;;
16294;SDS011;8255;49.560;8.244;2023-04-03T04:33:40;3.33;;;3.00;;
16294;SDS011;8255;49.560;8.244;2023-04-03T04:36:09;3.20;;;2.90;;
16294;SDS011;8255;49.560;8.244;2023-04-03T04:38:36;3.30;;;3.03;;
16294;SDS011;8255;49.560;8.244;2023-04-03T04:41:05;3.40;;;3.03;;
16294;SDS011;8255;49.560;8.244;2023-04-03T04:43:31;3.83;;;2.90;;
16294;SDS011;8255;49.560;8.244;2023-04-03T04:46:01;3.23;;;2.90;;
16294;SDS011;8255;49.560;8.244;2023-04-03T04:48:28;3.30;;;3.00;;
16294;SDS011;8255;49.560;8.244;2023-04-03T04:50:55;3.50;;;3.20;;
16294;SDS011;8255;49.560;8.244;2023-04-03T04:53:21;3.97;;;2.90;;
16294;SDS011;8255;49.560;8.244;2023-04-03T04:55:48;3.97;;;3.13;;
16294;SDS011;8255;49.560;8.244;2023-04-03T04:58:16;3.20;;;3.00;;
16294;SDS011;8255;49.560;8.244;2023-04-03T05:00:42;3.30;;;3.00;;
16294;SDS011;8255;49.560;8.244;2023-04-03T05:03:10;4.80;;;3.33;;
16294;SDS011;8255;49.560;8.244;2023-04-03T05:05:36;3.27;;;3.00;;
16294;SDS011;8255;49.560;8.244;2023-04-03T05:08:03;2.87;;;2.73;;
16294;SDS011;8255;49.560;8.244;2023-04-03T05:10:29;4.90;;;2.90;;
16294;SDS011;8255;49.560;8.244;2023-04-03T05:12:56;3.40;;;3.00;;
16294;SDS011;8255;49.560;8.244;2023-04-03T05:15:24;4.57;;;3.33;;
16294;SDS011;8255;49.560;8.244;2023-04-03T05:17:51;3.47;;;3.00;;
16294;SDS011;8255;49.560;8.244;2023-04-03T05:20:17;3.93;;;3.27;;
16294;SDS011;8255;49.560;8.244;2023-04-03T05:22:45;3.80;;;3.40;;
16294;SDS011;8255;49.560;8.244;2023-04-03T05:25:12;6.07;;;3.50;;
16294;SDS011;8255;49.560;8.244;2023-04-03T05:27:41;3.60;;;3.03;;
16294;SDS011;8255;49.560;8.244;2023-04-03T05:30:08;3.85;;;3.50;;
16294;SDS011;8255;49.560;8.244;2023-04-03T05:32:38;3.50;;;3.17;;
16294;SDS011;8255;49.560;8.244;2023-04-03T05:35:13;5.03;;;3.37;;
16294;SDS011;8255;49.560;8.244;2023-04-03T05:37:41;5.00;;;3.17;;
16294;SDS011;8255;49.560;8.244;2023-04-03T05:40:08;3.90;;;3.60;;
16294;SDS011;8255;49.560;8.244;2023-04-03T05:42:36;4.47;;;3.73;;
16294;SDS011;8255;49.560;8.244;2023-04-03T05:45:03;5.17;;;3.30;;
16294;SDS011;8255;49.560;8.244;2023-04-03T05:47:29;3.40;;;3.10;;
16294;SDS011;8255;49.560;8.244;2023-04-03T05:49:57;5.07;;;2.90;;
16294;SDS011;8255;49.560;8.244;2023-04-03T05:52:25;3.60;;;3.27;;
16294;SDS011;8255;49.560;8.244;2023-04-03T05:54:53;3.13;;;2.90;;
16294;SDS011;8255;49.560;8.244;2023-04-03T05:57:24;3.97;;;2.97;;
16294;SDS011;8255;49.560;8.244;2023-04-03T05:59:50;3.13;;;2.83;;
16294;SDS011;8255;49.560;8.244;2023-04-03T06:02:20;3.47;;;2.93;;
16294;SDS011;8255;49.560;8.244;2023-04-03T06:04:47;5.73;;;2.60;;
16294;SDS011;8255;49.560;8.244;2023-04-03T06:07:16;4.50;;;2.77;;
16294;SDS011;8255;49.560;8.244;2023-04-03T06:09:44;3.03;;;2.70;;
16294;SDS011;8255;49.560;8.244;2023-04-03T06:12:11;4.63;;;2.67;;
16294;SDS011;8255;49.560;8.244;2023-04-03T06:14:37;2.90;;;2.70;;
16294;SDS011;8255;49.560;8.244;2023-04-03T06:17:04;2.63;;;2.43;;
16294;SDS011;8255;49.560;8.244;2023-04-03T06:19:31;4.40;;;2.50;;
16294;SDS011;8255;49.560;8.244;2023-04-03T06:21:58;8.53;;;3.50;;
16294;SDS011;8255;49.560;8.244;2023-04-03T06:24:26;4.67;;;3.80;;
16294;SDS011;8255;49.560;8.244;2023-04-03T06:26:53;3.17;;;2.97;;
16294;SDS011;8255;49.560;8.244;2023-04-03T06:29:19;4.27;;;2.70;;
16294;SDS011;8255;49.560;8.244;2023-04-03T06:31:46;4.57;;;2.60;;
16294;SDS011;8255;49.560;8.244;2023-04-03T06:34:12;3.23;;;2.27;;
16294;SDS011;8255;49.560;8.244;2023-04-03T06:36:39;3.07;;;2.20;;
16294;SDS011;8255;49.560;8.244;2023-04-03T06:39:05;2.30;;;2.20;;
16294;SDS011;8255;49.560;8.244;2023-04-03T06:41:33;2.60;;;2.40;;
16294;SDS011;8255;49.560;8.244;2023-04-03T06:43:59;6.23;;;2.30;;
16294;SDS011;8255;49.560;8.244;2023-04-03T06:46:26;4.27;;;1.80;;
16294;SDS011;8255;49.560;8.244;2023-04-03T06:48:53;3.07;;;2.40;;
16294;SDS011;8255;49.560;8.244;2023-04-03T06:51:20;5.87;;;2.37;;
16294;SDS011;8255;49.560;8.244;2023-04-03T06:53:47;2.70;;;2.07;;
16294;SDS011;8255;49.560;8.244;2023-04-03T06:56:13;3.70;;;2.37;;
16294;SDS011;8255;49.560;8.244;2023-04-03T06:58:43;3.03;;;1.97;;
16294;SDS011;8255;49.560;8.244;2023-04-03T07:01:10;2.00;;;1.90;;
16294;SDS011;8255;49.560;8.244;2023-04-03T07:03:37;4.17;;;2.43;;
16294;SDS011;8255;49.560;8.244;2023-04-03T07:06:06;2.20;;;1.90;;
16294;SDS011;8255;49.560;8.244;2023-04-03T07:08:33;6.00;;;2.23;;
16294;SDS011;8255;49.560;8.244;2023-04-03T07:10:59;3.60;;;1.90;;
16294;SDS011;8255;49.560;8.244;2023-04-03T07:13:26;2.50;;;1.97;;
16294;SDS011;8255;49.560;8.244;2023-04-03T07:15:54;2.53;;;2.03;;
16294;SDS011;8255;49.560;8.244;2023-04-03T07:18:20;4.53;;;2.00;;
16294;SDS011;8255;49.560;8.244;2023-04-03T07:20:47;2.00;;;1.70;;
16294;SDS011;8255;49.560;8.244;2023-04-03T07:23:13;2.60;;;2.40;;
16294;SDS011;8255;49.560;8.244;2023-04-03T07:25:41;3.70;;;1.97;;
16294;SDS011;8255;49.560;8.244;2023-04-03T07:28:08;3.30;;;2.00;;
16294;SDS011;8255;49.560;8.244;2023-04-03T07:30:34;3.42;;;2.38;;
16294;SDS011;8255;49.560;8.244;2023-04-03T07:33:02;2.80;;;2.40;;
16294;SDS011;8255;49.560;8.244;2023-04-03T07:35:29;7.30;;;2.40;;
16294;SDS011;8255;49.560;8.244;2023-04-03T07:37:55;3.45;;;2.30;;
16294;SDS011;8255;49.560;8.244;2023-04-03T07:40:21;5.70;;;2.25;;
16294;SDS011;8255;49.560;8.244;2023-04-03T07:42:48;2.88;;;2.10;;
16294;SDS011;8255;49.560;8.244;2023-04-03T07:45:15;4.05;;;2.13;;
16294;SDS011;8255;49.560;8.244;2023-04-03T07:47:42;6.93;;;2.38;;
16294;SDS011;8255;49.560;8.244;2023-04-03T07:50:10;2.78;;;2.00;;
16294;SDS011;8255;49.560;8.244;2023-04-03T07:52:36;2.42;;;2.22;;
16294;SDS011;8255;49.560;8.244;2023-04-03T07:55:03;4.22;;;2.50;;
16294;SDS011;8255;49.560;8.244;2023-04-03T07:57:30;2.95;;;2.10;;
16294;SDS011;8255;49.560;8.244;2023-04-03T07:59:57;3.65;;;2.30;;
16294;SDS011;8255;49.560;8.244;2023-04-03T08:02:23;3.30;;;2.20;;
16294;SDS011;8255;49.560;8.244;2023-04-03T08:04:50;5.00;;;2.35;;
16294;SDS011;8255;49.560;8.244;2023-04-03T08:07:17;6.72;;;2.75;;
16294;SDS011;8255;49.560;8.244;2023-04-03T08:09:44;3.08;;;2.78;;
16294;SDS011;8255;49.560;8.244;2023-04-03T08:12:10;2.95;;;2.30;;
16294;SDS011;8255;49.560;8.244;2023-04-03T08:14:37;2.67;;;2.30;;
16294;SDS011;8255;49.560;8.244;2023-04-03T08:17:03;2.60;;;2.40;;
16294;SDS011;8255;49.560;8.244;2023-04-03T08:19:30;3.10;;;2.33;;
16294;SDS011;8255;49.560;8.244;2023-04-03T08:21:56;2.55;;;2.35;;
16294;SDS011;8255;49.560;8.244;2023-04-03T08:24:25;4.53;;;2.50;;
16294;SDS011;8255;49.560;8.244;2023-04-03T08:26:51;2.53;;;2.25;;
16294;SDS011;8255;49.560;8.244;2023-04-03T08:29:17;2.85;;;2.25;;
16294;SDS011;8255;49.560;8.244;2023-04-03T08:31:44;2.90;;;2.13;;
16294;SDS011;8255;49.560;8.244;2023-04-03T08:34:11;2.38;;;1.95;;
16294;SDS011;8255;49.560;8.244;2023-04-03T08:36:38;4.00;;;2.40;;
16294;SDS011;8255;49.560;8.244;2023-04-03T08:39:05;2.03;;;1.92;;
16294;SDS011;8255;49.560;8.244;2023-04-03T08:41:33;3.20;;;1.95;;
16294;SDS011;8255;49.560;8.244;2023-04-03T08:44:02;3.53;;;2.42;;
16294;SDS011;8255;49.560;8.244;2023-04-03T08:46:33;2.65;;;2.28;;
16294;SDS011;8255;49.560;8.244;2023-04-03T08:49:02;1.80;;;1.70;;
16294;SDS011;8255;49.560;8.244;2023-04-03T08:51:28;2.83;;;1.70;;
16294;SDS011;8255;49.560;8.244;2023-04-03T08:53:56;2.88;;;2.30;;
16294;SDS011;8255;49.560;8.244;2023-04-03T08:56:22;2.17;;;1.95;;
16294;SDS011;8255;49.560;8.244;2023-04-03T08:58:52;2.15;;;1.95;;
16294;SDS011;8255;49.560;8.244;2023-04-03T09:01:23;2.30;;;1.80;;
16294;SDS011;8255;49.560;8.244;2023-04-03T09:03:51;3.42;;;1.92;;
16294;SDS011;8255;49.560;8.244;2023-04-03T09:06:18;1.90;;;1.80;;
16294;SDS011;8255;49.560;8.244;2023-04-03T09:08:46;3.67;;;1.90;;
16294;SDS011;8255;49.560;8.244;2023-04-03T09:11:16;2.13;;;1.90;;
16294;SDS011;8255;49.560;8.244;2023-04-03T09:13:48;2.03;;;1.83;;
16294;SDS011;8255;49.560;8.244;2023-04-03T09:16:20;2.67;;;2.03;;
16294;SDS011;8255;49.560;8.244;2023-04-03T09:18:48;3.30;;;2.47;;
16294;SDS011;8255;49.560;8.244;2023-04-03T09:21:20;5.20;;;3.60;;
16294;SDS011;8255;49.560;8.244;2023-04-03T09:23:49;3.55;;;2.05;;
16294;SDS011;8255;49.560;8.244;2023-04-03T09:26:17;3.15;;;1.77;;
16294;SDS011;8255;49.560;8.244;2023-04-03T09:28:44;2.90;;;1.98;;
16294;SDS011;8255;49.560;8.244;2023-04-03T09:31:14;1.75;;;1.65;;
16294;SDS011;8255;49.560;8.244;2023-04-03T09:33:43;3.67;;;1.92;;
16294;SDS011;8255;49.560;8.244;2023-04-03T09:36:10;1.95;;;1.70;;
16294;SDS011;8255;49.560;8.244;2023-04-03T09:38:36;1.70;;;1.60;;
16294;SDS011;8255;49.560;8.244;2023-04-03T09:41:04;1.30;;;1.20;;
16294;SDS011;8255;49.560;8.244;2023-04-03T09:43:32;2.75;;;1.70;;
16294;SDS011;8255;49.560;8.244;2023-04-03T09:48:40;1.48;;;1.38;;
16294;SDS011;8255;49.560;8.244;2023-04-03T09:51:17;2.17;;;1.35;;
16294;SDS011;8255;49.560;8.244;2023-04-03T09:53:44;1.40;;;1.30;;
16294;SDS011;8255;49.560;8.244;2023-04-03T09:56:18;1.77;;;1.30;;
16294;SDS011;8255;49.560;8.244;2023-04-03T09:58:47;1.65;;;1.55;;
16294;SDS011;8255;49.560;8.244;2023-04-03T10:01:20;2.90;;;1.48;;
16294;SDS011;8255;49.560;8.244;2023-04-03T10:03:47;1.48;;;1.38;;
16294;SDS011;8255;49.560;8.244;2023-04-03T10:06:29;1.58;;;1.48;;
16294;SDS011;8255;49.560;8.244;2023-04-03T10:08:58;3.65;;;1.77;;
16294;SDS011;8255;49.560;8.244;2023-04-03T10:11:24;1.50;;;1.40;;
16294;SDS011;8255;49.560;8.244;2023-04-03T10:13:55;2.85;;;1.40;;
16294;SDS011;8255;49.560;8.244;2023-04-03T10:16:25;2.08;;;1.55;;
16294;SDS011;8255;49.560;8.244;2023-04-03T10:18:55;1.85;;;1.50;;
16294;SDS011;8255;49.560;8.244;2023-04-03T10:21:28;1.90;;;1.33;;
16294;SDS011;8255;49.560;8.244;2023-04-03T10:23:57;1.58;;;1.48;;
16294;SDS011;8255;49.560;8.244;2023-04-03T10:26:29;1.90;;;1.52;;
16294;SDS011;8255;49.560;8.244;2023-04-03T10:29:00;1.73;;;1.55;;
16294;SDS011;8255;49.560;8.244;2023-04-03T10:31:29;4.78;;;1.85;;
16294;SDS011;8255;49.560;8.244;2023-04-03T10:34:01;4.40;;;1.60;;
16294;SDS011;8255;49.560;8.244;2023-04-03T10:36:34;2.22;;;1.60;;
16294;SDS011;8255;49.560;8.244;2023-04-03T10:39:06;3.67;;;1.60;;
16294;SDS011;8255;49.560;8.244;2023-04-03T10:41:40;1.50;;;1.40;;
16294;SDS011;8255;49.560;8.244;2023-04-03T10:44:14;1.85;;;1.70;;
16294;SDS011;8255;49.560;8.244;2023-04-03T10:46:42;1.75;;;1.50;;
16294;SDS011;8255;49.560;8.244;2023-04-03T10:51:54;2.85;;;1.90;;
16294;SDS011;8255;49.560;8.244;2023-04-03T10:54:26;1.75;;;1.55;;
16294;SDS011;8255;49.560;8.244;2023-04-03T10:56:56;2.58;;;1.50;;
16294;SDS011;8255;49.560;8.244;2023-04-03T10:59:25;1.67;;;1.50;;
16294;SDS011;8255;49.560;8.244;2023-04-03T11:01:53;2.30;;;1.48;;
16294;SDS011;8255;49.560;8.244;2023-04-03T11:04:21;2.15;;;1.65;;
16294;SDS011;8255;49.560;8.244;2023-04-03T11:06:51;1.40;;;1.30;;
16294;SDS011;8255;49.560;8.244;2023-04-03T11:09:21;3.13;;;1.92;;
16294;SDS011;8255;49.560;8.244;2023-04-03T11:11:50;1.98;;;1.50;;
16294;SDS011;8255;49.560;8.244;2023-04-03T11:14:18;1.60;;;1.50;;
16294;SDS011;8255;49.560;8.244;2023-04-03T11:16:48;1.77;;;1.52;;
16294;SDS011;8255;49.560;8.244;2023-04-03T11:19:16;1.98;;;1.80;;
16294;SDS011;8255;49.560;8.244;2023-04-03T11:21:47;1.90;;;1.40;;
16294;SDS011;8255;49.560;8.244;2023-04-03T11:24:20;3.35;;;1.67;;
16294;SDS011;8255;49.560;8.244;2023-04-03T11:26:48;2.35;;;1.52;;
16294;SDS011;8255;49.560;8.244;2023-04-03T11:29:18;2.50;;;1.92;;
16294;SDS011;8255;49.560;8.244;2023-04-03T11:31:52;1.70;;;1.60;;
16294;SDS011;8255;49.560;8.244;2023-04-03T11:34:25;1.98;;;1.38;;
16294;SDS011;8255;49.560;8.244;2023-04-03T11:36:54;3.55;;;1.50;;
16294;SDS011;8255;49.560;8.244;2023-04-03T11:39:22;2.28;;;1.50;;
16294;SDS011;8255;49.560;8.244;2023-04-03T11:41:49;1.50;;;1.40;;
16294;SDS011;8255;49.560;8.244;2023-04-03T11:44:31;2.80;;;1.55;;
16294;SDS011;8255;49.560;8.244;2023-04-03T11:46:59;1.63;;;1.52;;
16294;SDS011;8255;49.560;8.244;2023-04-03T11:52:10;1.45;;;1.33;;
16294;SDS011;8255;49.560;8.244;2023-04-03T11:54:44;1.80;;;1.70;;
16294;SDS011;8255;49.560;8.244;2023-04-03T11:59:57;1.70;;;1.60;;
16294;SDS011;8255;49.560;8.244;2023-04-03T12:02:37;1.48;;;1.33;;
16294;SDS011;8255;49.560;8.244;2023-04-03T12:05:24;1.73;;;1.60;;
16294;SDS011;8255;49.560;8.244;2023-04-03T12:10:32;4.28;;;1.50;;
16294;SDS011;8255;49.560;8.244;2023-04-03T12:12:59;1.27;;;1.27;;
16294;SDS011;8255;49.560;8.244;2023-04-03T12:21:17;2.20;;;1.38;;
16294;SDS011;8255;49.560;8.244;2023-04-03T12:23:58;1.67;;;1.55;;
16294;SDS011;8255;49.560;8.244;2023-04-03T12:26:26;1.60;;;1.50;;
16294;SDS011;8255;49.560;8.244;2023-04-03T12:28:53;1.80;;;1.70;;
16294;SDS011;8255;49.560;8.244;2023-04-03T12:31:22;1.58;;;1.48;;
16294;SDS011;8255;49.560;8.244;2023-04-03T12:33:59;1.77;;;1.40;;
16294;SDS011;8255;49.560;8.244;2023-04-03T12:36:30;1.77;;;1.67;;
16294;SDS011;8255;49.560;8.244;2023-04-03T12:39:06;1.80;;;1.70;;
16294;SDS011;8255;49.560;8.244;2023-04-03T12:41:38;1.58;;;1.48;;
16294;SDS011;8255;49.560;8.244;2023-04-03T12:44:10;4.25;;;1.35;;
16294;SDS011;8255;49.560;8.244;2023-04-03T12:46:42;1.65;;;1.50;;
16294;SDS011;8255;49.560;8.244;2023-04-03T12:49:14;1.70;;;1.60;;
16294;SDS011;8255;49.560;8.244;2023-04-03T12:51:45;1.92;;;1.70;;
16294;SDS011;8255;49.560;8.244;2023-04-03T12:54:13;2.45;;;1.60;;
16294;SDS011;8255;49.560;8.244;2023-04-03T12:56:40;1.52;;;1.42;;
16294;SDS011;8255;49.560;8.244;2023-04-03T12:59:13;1.38;;;1.38;;
16294;SDS011;8255;49.560;8.244;2023-04-03T13:01:42;1.65;;;1.50;;
16294;SDS011;8255;49.560;8.244;2023-04-03T13:04:09;1.73;;;1.60;;
16294;SDS011;8255;49.560;8.244;2023-04-03T13:06:38;1.88;;;1.70;;
16294;SDS011;8255;49.560;8.244;2023-04-03T13:09:06;1.48;;;1.38;;
16294;SDS011;8255;49.560;8.244;2023-04-03T13:11:43;1.90;;;1.60;;
16294;SDS011;8255;49.560;8.244;2023-04-03T13:14:14;2.28;;;1.50;;
16294;SDS011;8255;49.560;8.244;2023-04-03T13:16:41;3.10;;;1.58;;
16294;SDS011;8255;49.560;8.244;2023-04-03T13:19:14;2.65;;;1.55;;
16294;SDS011;8255;49.560;8.244;2023-04-03T13:21:41;1.88;;;1.52;;
16294;SDS011;8255;49.560;8.244;2023-04-03T13:24:10;1.83;;;1.70;;
16294;SDS011;8255;49.560;8.244;2023-04-03T13:26:37;1.67;;;1.50;;
16294;SDS011;8255;49.560;8.244;2023-04-03T13:29:04;3.28;;;2.00;;
16294;SDS011;8255;49.560;8.244;2023-04-03T13:31:31;1.60;;;1.50;;
16294;SDS011;8255;49.560;8.244;2023-04-03T13:34:02;4.03;;;1.17;;
16294;SDS011;8255;49.560;8.244;2023-04-03T13:36:29;1.95;;;1.70;;
16294;SDS011;8255;49.560;8.244;2023-04-03T13:39:00;2.38;;;1.60;;
16294;SDS011;8255;49.560;8.244;2023-04-03T13:41:30;2.13;;;1.40;;
16294;SDS011;8255;49.560;8.244;2023-04-03T13:43:56;1.60;;;1.40;;
16294;SDS011;8255;49.560;8.244;2023-04-03T13:46:24;1.65;;;1.55;;
16294;SDS011;8255;49.560;8.244;2023-04-03T13:48:51;1.67;;;1.58;;
16294;SDS011;8255;49.560;8.244;2023-04-03T13:51:18;1.83;;;1.70;;
16294;SDS011;8255;49.560;8.244;2023-04-03T13:53:47;1.75;;;1.48;;
16294;SDS011;8255;49.560;8.244;2023-04-03T13:56:18;3.08;;;1.70;;
16294;SDS011;8255;49.560;8.244;2023-04-03T13:58:54;1.50;;;1.40;;
16294;SDS011;8255;49.560;8.244;2023-04-03T14:01:21;1.80;;;1.70;;
16294;SDS011;8255;49.560;8.244;2023-04-03T14:03:51;1.42;;;1.27;;
16294;SDS011;8255;49.560;8.244;2023-04-03T14:06:18;1.77;;;1.50;;
16294;SDS011;8255;49.560;8.244;2023-04-03T14:08:46;1.75;;;1.20;;
16294;SDS011;8255;49.560;8.244;2023-04-03T14:11:14;1.88;;;1.67;;
16294;SDS011;8255;49.560;8.244;2023-04-03T14:13:41;2.10;;;1.90;;
16294;SDS011;8255;49.560;8.244;2023-04-03T14:16:11;1.50;;;1.40;;
16294;SDS011;8255;49.560;8.244;2023-04-03T14:18:37;1.50;;;1.30;;
16294;SDS011;8255;49.560;8.244;2023-04-03T14:21:04;6.55;;;2.20;;
16294;SDS011;8255;49.560;8.244;2023-04-03T14:23:30;1.73;;;1.50;;
16294;SDS011;8255;49.560;8.244;2023-04-03T14:25:58;1.70;;;1.60;;
16294;SDS011;8255;49.560;8.244;2023-04-03T14:28:25;1.70;;;1.60;;
16294;SDS011;8255;49.560;8.244;2023-04-03T14:30:51;1.88;;;1.70;;
16294;SDS011;8255;49.560;8.244;2023-04-03T14:33:20;1.70;;;1.60;;
16294;SDS011;8255;49.560;8.244;2023-04-03T14:35:46;1.70;;;1.60;;
16294;SDS011;8255;49.560;8.244;2023-04-03T14:38:20;2.13;;;1.80;;
16294;SDS011;8255;49.560;8.244;2023-04-03T14:40:47;1.50;;;1.40;;
16294;SDS011;8255;49.560;8.244;2023-04-03T14:43:13;1.52;;;1.42;;
16294;SDS011;8255;49.560;8.244;2023-04-03T14:45:40;1.83;;;1.67;;
16294;SDS011;8255;49.560;8.244;2023-04-03T14:48:06;1.88;;;1.77;;
16294;SDS011;8255;49.560;8.244;2023-04-03T14:50:37;1.80;;;1.70;;
16294;SDS011;8255;49.560;8.244;2023-04-03T14:53:04;1.95;;;1.60;;
16294;SDS011;8255;49.560;8.244;2023-04-03T14:55:31;1.60;;;1.50;;
16294;SDS011;8255;49.560;8.244;2023-04-03T14:57:57;2.53;;;1.50;;
16294;SDS011;8255;49.560;8.244;2023-04-03T15:00:23;2.08;;;1.70;;
16294;SDS011;8255;49.560;8.244;2023-04-03T15:02:50;1.80;;;1.70;;
16294;SDS011;8255;49.560;8.244;2023-04-03T15:05:16;1.75;;;1.65;;
16294;SDS011;8255;49.560;8.244;2023-04-03T15:07:47;1.92;;;1.80;;
16294;SDS011;8255;49.560;8.244;2023-04-03T15:10:15;2.55;;;1.50;;
16294;SDS011;8255;49.560;8.244;2023-04-03T15:12:42;2.17;;;1.83;;
16294;SDS011;8255;49.560;8.244;2023-04-03T15:15:08;1.90;;;1.60;;
16294;SDS011;8255;49.560;8.244;2023-04-03T15:17:35;2.22;;;2.13;;
16294;SDS011;8255;49.560;8.244;2023-04-03T15:20:02;1.70;;;1.60;;
16294;SDS011;8255;49.560;8.244;2023-04-03T15:22:28;1.75;;;1.65;;
16294;SDS011;8255;49.560;8.244;2023-04-03T15:24:56;1.70;;;1.60;;
16294;SDS011;8255;49.560;8.244;2023-04-03T15:27:22;1.67;;;1.55;;